sensor_id;sensor_type;location;lat;lon;timestamp;temperature;humidity
21672;DHT22;10997;52.242;8.168;2024-01-30T00:00:07;4.50;99.90
21672;DHT22;10997;52.242;8.168;2024-01-30T00:05:08;4.40;99.90
21672;DHT22;10997;52.242;8.168;2024-01-30T00:10:09;4.40;99.90
21672;DHT22;10997;52.242;8.168;2024-01-30T00:15:10;4.50;99.90
21672;DHT22;10997;52.242;8.168;2024-01-30T00:20:11;4.60;99.90
21672;DHT22;10997;52.242;8.168;2024-01-30T00:25:11;4.70;99.90
21672;DHT22;10997;52.242;8.168;2024-01-30T00:30:12;4.70;99.90
21672;DHT22;10997;52.242;8.168;2024-01-30T00:35:13;4.70;99.90
21672;DHT22;10997;52.242;8.168;2024-01-30T00:40:14;4.80;99.90
21672;DHT22;10997;52.242;8.168;2024-01-30T00:45:16;4.80;99.90
21672;DHT22;10997;52.242;8.168;2024-01-30T00:50:17;4.80;99.90
21672;DHT22;10997;52.242;8.168;2024-01-30T00:55:17;4.80;99.90
21672;DHT22;10997;52.242;8.168;2024-01-30T01:00:18;4.80;99.90
21672;DHT22;10997;52.242;8.168;2024-01-30T01:05:21;4.90;99.90
21672;DHT22;10997;52.242;8.168;2024-01-30T01:10:21;5.00;99.90
21672;DHT22;10997;52.242;8.168;2024-01-30T01:15:23;5.10;99.90
21672;DHT22;10997;52.242;8.168;2024-01-30T01:20:23;5.00;99.90
21672;DHT22;10997;52.242;8.168;2024-01-30T01:25:24;4.90;99.90
21672;DHT22;10997;52.242;8.168;2024-01-30T01:30:25;4.80;99.90
21672;DHT22;10997;52.242;8.168;2024-01-30T01:35:26;4.70;99.90
21672;DHT22;10997;52.242;8.168;2024-01-30T01:40:27;4.70;99.90
21672;DHT22;10997;52.242;8.168;2024-01-30T01:45:28;4.60;99.90
21672;DHT22;10997;52.242;8.168;2024-01-30T01:50:28;4.50;99.90
21672;DHT22;10997;52.242;8.168;2024-01-30T01:55:29;4.50;99.90
21672;DHT22;10997;52.242;8.168;2024-01-30T02:00:30;4.40;99.90
21672;DHT22;10997;52.242;8.168;2024-01-30T02:05:31;4.50;99.90
21672;DHT22;10997;52.242;8.168;2024-01-30T02:10:32;4.50;99.90
21672;DHT22;10997;52.242;8.168;2024-01-30T02:15:33;4.70;99.90
21672;DHT22;10997;52.242;8.168;2024-01-30T02:20:35;4.90;99.90
21672;DHT22;10997;52.242;8.168;2024-01-30T02:25:41;5.20;99.90
21672;DHT22;10997;52.242;8.168;2024-01-30T02:30:45;5.40;99.90
21672;DHT22;10997;52.242;8.168;2024-01-30T02:35:46;5.50;99.90
21672;DHT22;10997;52.242;8.168;2024-01-30T02:40:46;5.70;99.90
21672;DHT22;10997;52.242;8.168;2024-01-30T02:45:47;5.90;99.90
21672;DHT22;10997;52.242;8.168;2024-01-30T02:50:48;5.90;99.90
21672;DHT22;10997;52.242;8.168;2024-01-30T02:55:48;6.00;99.90
21672;DHT22;10997;52.242;8.168;2024-01-30T03:00:49;6.00;99.90
21672;DHT22;10997;52.242;8.168;2024-01-30T03:05:49;6.00;99.90
21672;DHT22;10997;52.242;8.168;2024-01-30T03:10:50;6.00;99.90
21672;DHT22;10997;52.242;8.168;2024-01-30T03:15:51;6.10;99.90
21672;DHT22;10997;52.242;8.168;2024-01-30T03:20:52;6.20;99.90
21672;DHT22;10997;52.242;8.168;2024-01-30T03:25:52;6.20;99.90
21672;DHT22;10997;52.242;8.168;2024-01-30T03:30:53;6.20;99.90
21672;DHT22;10997;52.242;8.168;2024-01-30T03:35:54;6.20;99.90
21672;DHT22;10997;52.242;8.168;2024-01-30T03:40:54;6.20;99.90
21672;DHT22;10997;52.242;8.168;2024-01-30T03:45:55;6.20;99.90
21672;DHT22;10997;52.242;8.168;2024-01-30T03:50:55;6.20;99.90
21672;DHT22;10997;52.242;8.168;2024-01-30T03:55:56;6.20;99.90
21672;DHT22;10997;52.242;8.168;2024-01-30T04:00:57;6.20;99.90
21672;DHT22;10997;52.242;8.168;2024-01-30T04:05:57;6.20;99.90
21672;DHT22;10997;52.242;8.168;2024-01-30T04:10:58;6.10;99.90
21672;DHT22;10997;52.242;8.168;2024-01-30T04:16:00;6.10;99.90
21672;DHT22;10997;52.242;8.168;2024-01-30T04:21:03;6.20;99.90
21672;DHT22;10997;52.242;8.168;2024-01-30T04:26:04;6.20;99.90
21672;DHT22;10997;52.242;8.168;2024-01-30T04:31:05;6.30;99.90
21672;DHT22;10997;52.242;8.168;2024-01-30T04:36:08;6.30;99.90
21672;DHT22;10997;52.242;8.168;2024-01-30T04:41:12;6.30;99.90
21672;DHT22;10997;52.242;8.168;2024-01-30T04:46:13;6.20;99.90
21672;DHT22;10997;52.242;8.168;2024-01-30T04:51:13;6.20;99.90
21672;DHT22;10997;52.242;8.168;2024-01-30T04:56:14;6.10;99.90
21672;DHT22;10997;52.242;8.168;2024-01-30T05:01:16;6.10;99.90
21672;DHT22;10997;52.242;8.168;2024-01-30T05:06:26;6.10;99.90
21672;DHT22;10997;52.242;8.168;2024-01-30T05:11:27;6.10;99.90
21672;DHT22;10997;52.242;8.168;2024-01-30T05:16:28;6.10;99.90
21672;DHT22;10997;52.242;8.168;2024-01-30T05:21:28;6.20;99.90
21672;DHT22;10997;52.242;8.168;2024-01-30T05:26:29;6.20;99.90
21672;DHT22;10997;52.242;8.168;2024-01-30T05:31:30;6.20;99.90
21672;DHT22;10997;52.242;8.168;2024-01-30T05:36:31;6.30;99.90
21672;DHT22;10997;52.242;8.168;2024-01-30T05:41:31;6.20;99.90
21672;DHT22;10997;52.242;8.168;2024-01-30T05:46:33;6.20;99.90
21672;DHT22;10997;52.242;8.168;2024-01-30T05:51:34;6.40;99.90
21672;DHT22;10997;52.242;8.168;2024-01-30T05:56:34;6.50;99.90
21672;DHT22;10997;52.242;8.168;2024-01-30T06:01:35;6.60;99.90
21672;DHT22;10997;52.242;8.168;2024-01-30T06:06:36;6.70;99.90
21672;DHT22;10997;52.242;8.168;2024-01-30T06:11:36;6.80;99.90
21672;DHT22;10997;52.242;8.168;2024-01-30T06:16:37;6.80;99.90
21672;DHT22;10997;52.242;8.168;2024-01-30T06:21:38;6.80;99.90
21672;DHT22;10997;52.242;8.168;2024-01-30T06:26:38;7.00;99.90
21672;DHT22;10997;52.242;8.168;2024-01-30T06:31:42;7.00;99.90
21672;DHT22;10997;52.242;8.168;2024-01-30T06:36:43;7.10;99.90
21672;DHT22;10997;52.242;8.168;2024-01-30T06:41:43;7.10;99.90
21672;DHT22;10997;52.242;8.168;2024-01-30T06:46:44;7.10;99.90
21672;DHT22;10997;52.242;8.168;2024-01-30T06:51:44;7.20;99.90
21672;DHT22;10997;52.242;8.168;2024-01-30T06:56:45;7.20;99.90
21672;DHT22;10997;52.242;8.168;2024-01-30T07:01:46;7.20;99.90
21672;DHT22;10997;52.242;8.168;2024-01-30T07:06:46;7.20;99.90
21672;DHT22;10997;52.242;8.168;2024-01-30T07:11:47;7.30;99.90
21672;DHT22;10997;52.242;8.168;2024-01-30T07:16:48;7.40;99.90
21672;DHT22;10997;52.242;8.168;2024-01-30T07:21:48;7.40;99.90
21672;DHT22;10997;52.242;8.168;2024-01-30T07:26:49;7.40;99.90
21672;DHT22;10997;52.242;8.168;2024-01-30T07:31:50;7.40;99.90
21672;DHT22;10997;52.242;8.168;2024-01-30T07:36:50;7.40;99.90
21672;DHT22;10997;52.242;8.168;2024-01-30T07:41:51;7.50;99.90
21672;DHT22;10997;52.242;8.168;2024-01-30T07:46:51;7.50;99.90
21672;DHT22;10997;52.242;8.168;2024-01-30T07:51:52;7.50;99.90
21672;DHT22;10997;52.242;8.168;2024-01-30T07:56:53;7.50;99.90
21672;DHT22;10997;52.242;8.168;2024-01-30T08:01:53;7.60;99.90
21672;DHT22;10997;52.242;8.168;2024-01-30T08:06:54;7.60;99.90
21672;DHT22;10997;52.242;8.168;2024-01-30T08:11:55;7.70;99.90
21672;DHT22;10997;52.242;8.168;2024-01-30T08:16:55;7.70;99.90
21672;DHT22;10997;52.242;8.168;2024-01-30T08:21:56;7.90;99.90
21672;DHT22;10997;52.242;8.168;2024-01-30T08:26:57;8.00;99.90
21672;DHT22;10997;52.242;8.168;2024-01-30T08:31:58;8.10;99.90
21672;DHT22;10997;52.242;8.168;2024-01-30T08:37:00;8.30;99.90
21672;DHT22;10997;52.242;8.168;2024-01-30T08:42:01;8.40;99.90
21672;DHT22;10997;52.242;8.168;2024-01-30T08:47:02;8.50;99.90
21672;DHT22;10997;52.242;8.168;2024-01-30T08:52:03;8.80;99.90
21672;DHT22;10997;52.242;8.168;2024-01-30T08:57:04;9.00;99.90
21672;DHT22;10997;52.242;8.168;2024-01-30T09:02:05;9.10;99.90
21672;DHT22;10997;52.242;8.168;2024-01-30T09:07:06;9.20;99.90
21672;DHT22;10997;52.242;8.168;2024-01-30T09:12:09;9.30;99.90
21672;DHT22;10997;52.242;8.168;2024-01-30T09:17:11;9.40;99.90
21672;DHT22;10997;52.242;8.168;2024-01-30T09:22:12;9.50;99.90
21672;DHT22;10997;52.242;8.168;2024-01-30T09:27:13;9.60;99.90
21672;DHT22;10997;52.242;8.168;2024-01-30T09:32:13;9.70;99.90
21672;DHT22;10997;52.242;8.168;2024-01-30T09:37:14;9.70;99.90
21672;DHT22;10997;52.242;8.168;2024-01-30T09:47:42;9.80;99.90
21672;DHT22;10997;52.242;8.168;2024-01-30T09:52:45;9.90;99.90
21672;DHT22;10997;52.242;8.168;2024-01-30T09:57:45;10.00;99.90
21672;DHT22;10997;52.242;8.168;2024-01-30T10:02:47;10.10;99.90
21672;DHT22;10997;52.242;8.168;2024-01-30T10:07:53;10.10;99.90
21672;DHT22;10997;52.242;8.168;2024-01-30T10:12:55;10.20;99.90
21672;DHT22;10997;52.242;8.168;2024-01-30T10:17:55;10.30;99.90
21672;DHT22;10997;52.242;8.168;2024-01-30T10:22:56;10.40;99.90
21672;DHT22;10997;52.242;8.168;2024-01-30T10:27:58;10.60;99.90
21672;DHT22;10997;52.242;8.168;2024-01-30T10:32:59;10.70;99.90
21672;DHT22;10997;52.242;8.168;2024-01-30T10:37:59;10.70;99.90
21672;DHT22;10997;52.242;8.168;2024-01-30T10:43:01;10.70;99.90
21672;DHT22;10997;52.242;8.168;2024-01-30T10:48:04;10.80;99.90
21672;DHT22;10997;52.242;8.168;2024-01-30T10:53:08;10.80;99.90
21672;DHT22;10997;52.242;8.168;2024-01-30T10:58:10;10.70;99.90
21672;DHT22;10997;52.242;8.168;2024-01-30T11:03:12;10.70;99.90
21672;DHT22;10997;52.242;8.168;2024-01-30T11:08:13;10.70;99.90
21672;DHT22;10997;52.242;8.168;2024-01-30T11:13:14;10.70;99.90
21672;DHT22;10997;52.242;8.168;2024-01-30T11:18:25;10.60;99.90
21672;DHT22;10997;52.242;8.168;2024-01-30T11:23:27;10.70;99.90
21672;DHT22;10997;52.242;8.168;2024-01-30T11:28:33;10.60;99.90
21672;DHT22;10997;52.242;8.168;2024-01-30T11:33:34;10.60;99.90
21672;DHT22;10997;52.242;8.168;2024-01-30T11:38:35;10.60;99.90
21672;DHT22;10997;52.242;8.168;2024-01-30T11:43:36;10.50;99.90
21672;DHT22;10997;52.242;8.168;2024-01-30T11:48:38;10.60;99.90
21672;DHT22;10997;52.242;8.168;2024-01-30T11:53:39;10.80;99.90
21672;DHT22;10997;52.242;8.168;2024-01-30T11:58:43;10.90;99.90
21672;DHT22;10997;52.242;8.168;2024-01-30T12:03:50;11.00;99.90
21672;DHT22;10997;52.242;8.168;2024-01-30T12:09:02;11.10;99.90
21672;DHT22;10997;52.242;8.168;2024-01-30T12:14:08;11.20;99.90
21672;DHT22;10997;52.242;8.168;2024-01-30T12:19:09;11.20;99.90
21672;DHT22;10997;52.242;8.168;2024-01-30T12:24:13;11.30;99.90
21672;DHT22;10997;52.242;8.168;2024-01-30T12:29:14;11.40;99.90
21672;DHT22;10997;52.242;8.168;2024-01-30T12:34:18;11.40;99.90
21672;DHT22;10997;52.242;8.168;2024-01-30T12:39:20;11.50;99.90
21672;DHT22;10997;52.242;8.168;2024-01-30T12:44:22;11.50;99.90
21672;DHT22;10997;52.242;8.168;2024-01-30T12:49:23;11.40;99.90
21672;DHT22;10997;52.242;8.168;2024-01-30T12:54:23;11.40;99.90
21672;DHT22;10997;52.242;8.168;2024-01-30T12:59:24;11.40;99.90
21672;DHT22;10997;52.242;8.168;2024-01-30T13:04:25;11.40;99.90
21672;DHT22;10997;52.242;8.168;2024-01-30T13:09:25;11.30;99.90
21672;DHT22;10997;52.242;8.168;2024-01-30T13:14:26;11.30;99.90
21672;DHT22;10997;52.242;8.168;2024-01-30T13:19:27;11.30;99.90
21672;DHT22;10997;52.242;8.168;2024-01-30T13:24:28;11.30;99.90
21672;DHT22;10997;52.242;8.168;2024-01-30T13:29:28;11.30;99.90
21672;DHT22;10997;52.242;8.168;2024-01-30T13:34:29;11.30;99.90
21672;DHT22;10997;52.242;8.168;2024-01-30T13:39:31;11.30;99.90
21672;DHT22;10997;52.242;8.168;2024-01-30T13:44:32;11.30;99.90
21672;DHT22;10997;52.242;8.168;2024-01-30T13:49:32;11.30;99.90
21672;DHT22;10997;52.242;8.168;2024-01-30T13:54:33;11.30;99.90
21672;DHT22;10997;52.242;8.168;2024-01-30T13:59:33;11.40;99.90
21672;DHT22;10997;52.242;8.168;2024-01-30T14:04:34;11.40;99.90
21672;DHT22;10997;52.242;8.168;2024-01-30T14:09:37;11.50;99.90
21672;DHT22;10997;52.242;8.168;2024-01-30T14:14:38;11.50;99.90
21672;DHT22;10997;52.242;8.168;2024-01-30T14:19:38;11.50;99.90
21672;DHT22;10997;52.242;8.168;2024-01-30T14:24:39;11.50;99.90
21672;DHT22;10997;52.242;8.168;2024-01-30T14:29:40;11.50;99.90
21672;DHT22;10997;52.242;8.168;2024-01-30T14:34:41;11.50;99.90
21672;DHT22;10997;52.242;8.168;2024-01-30T14:39:42;11.50;99.90
21672;DHT22;10997;52.242;8.168;2024-01-30T14:44:43;11.50;99.90
21672;DHT22;10997;52.242;8.168;2024-01-30T14:49:43;11.50;99.90
21672;DHT22;10997;52.242;8.168;2024-01-30T14:54:44;11.50;99.90
21672;DHT22;10997;52.242;8.168;2024-01-30T14:59:45;11.40;99.90
21672;DHT22;10997;52.242;8.168;2024-01-30T15:04:45;11.40;99.90
21672;DHT22;10997;52.242;8.168;2024-01-30T15:09:46;11.40;99.90
21672;DHT22;10997;52.242;8.168;2024-01-30T15:14:47;11.30;99.90
21672;DHT22;10997;52.242;8.168;2024-01-30T15:19:51;11.30;99.90
21672;DHT22;10997;52.242;8.168;2024-01-30T15:24:51;11.30;99.90
21672;DHT22;10997;52.242;8.168;2024-01-30T15:29:52;11.20;99.90
21672;DHT22;10997;52.242;8.168;2024-01-30T15:34:52;11.20;99.90
21672;DHT22;10997;52.242;8.168;2024-01-30T15:39:53;11.10;99.90
21672;DHT22;10997;52.242;8.168;2024-01-30T15:44:54;11.20;99.90
21672;DHT22;10997;52.242;8.168;2024-01-30T15:49:54;11.20;99.90
21672;DHT22;10997;52.242;8.168;2024-01-30T15:54:55;11.10;99.90
21672;DHT22;10997;52.242;8.168;2024-01-30T15:59:56;11.10;99.90
21672;DHT22;10997;52.242;8.168;2024-01-30T16:04:56;11.00;99.90
21672;DHT22;10997;52.242;8.168;2024-01-30T16:09:57;11.00;99.90
21672;DHT22;10997;52.242;8.168;2024-01-30T16:14:57;10.90;99.90
21672;DHT22;10997;52.242;8.168;2024-01-30T16:19:58;10.90;99.90
21672;DHT22;10997;52.242;8.168;2024-01-30T16:24:59;10.90;99.90
21672;DHT22;10997;52.242;8.168;2024-01-30T16:29:59;10.80;99.90
21672;DHT22;10997;52.242;8.168;2024-01-30T16:35:00;10.70;99.90
21672;DHT22;10997;52.242;8.168;2024-01-30T16:40:00;10.70;99.90
21672;DHT22;10997;52.242;8.168;2024-01-30T16:45:01;10.40;99.90
21672;DHT22;10997;52.242;8.168;2024-01-30T16:50:02;10.10;99.90
21672;DHT22;10997;52.242;8.168;2024-01-30T16:55:03;9.90;99.90
21672;DHT22;10997;52.242;8.168;2024-01-30T17:00:04;9.70;99.90
21672;DHT22;10997;52.242;8.168;2024-01-30T17:05:06;9.60;99.90
21672;DHT22;10997;52.242;8.168;2024-01-30T17:10:07;9.50;99.90
21672;DHT22;10997;52.242;8.168;2024-01-30T17:15:08;9.40;99.90
21672;DHT22;10997;52.242;8.168;2024-01-30T17:20:13;9.30;99.90
21672;DHT22;10997;52.242;8.168;2024-01-30T17:25:14;9.30;99.90
21672;DHT22;10997;52.242;8.168;2024-01-30T17:30:20;9.40;99.90
21672;DHT22;10997;52.242;8.168;2024-01-30T17:35:21;9.40;99.90
21672;DHT22;10997;52.242;8.168;2024-01-30T17:40:21;9.40;99.90
21672;DHT22;10997;52.242;8.168;2024-01-30T17:45:22;9.40;99.90
21672;DHT22;10997;52.242;8.168;2024-01-30T17:50:23;9.40;99.90
21672;DHT22;10997;52.242;8.168;2024-01-30T17:55:24;9.30;99.90
21672;DHT22;10997;52.242;8.168;2024-01-30T18:00:24;9.30;99.90
21672;DHT22;10997;52.242;8.168;2024-01-30T18:05:25;9.20;99.90
21672;DHT22;10997;52.242;8.168;2024-01-30T18:10:26;9.20;99.90
21672;DHT22;10997;52.242;8.168;2024-01-30T18:15:26;9.20;99.90
21672;DHT22;10997;52.242;8.168;2024-01-30T18:20:27;9.10;99.90
21672;DHT22;10997;52.242;8.168;2024-01-30T18:25:27;9.00;99.90
21672;DHT22;10997;52.242;8.168;2024-01-30T18:30:28;9.00;99.90
21672;DHT22;10997;52.242;8.168;2024-01-30T18:35:29;9.00;99.90
21672;DHT22;10997;52.242;8.168;2024-01-30T18:40:30;8.90;99.90
21672;DHT22;10997;52.242;8.168;2024-01-30T18:45:31;8.90;99.90
21672;DHT22;10997;52.242;8.168;2024-01-30T18:50:32;9.00;99.90
21672;DHT22;10997;52.242;8.168;2024-01-30T18:55:33;8.90;99.90
21672;DHT22;10997;52.242;8.168;2024-01-30T19:00:34;8.70;99.90
21672;DHT22;10997;52.242;8.168;2024-01-30T19:05:36;8.50;99.90
21672;DHT22;10997;52.242;8.168;2024-01-30T19:10:37;8.40;99.90
21672;DHT22;10997;52.242;8.168;2024-01-30T19:15:38;8.40;99.90
21672;DHT22;10997;52.242;8.168;2024-01-30T19:20:38;8.40;99.90
21672;DHT22;10997;52.242;8.168;2024-01-30T19:25:39;8.50;99.90
21672;DHT22;10997;52.242;8.168;2024-01-30T19:30:39;8.40;99.90
21672;DHT22;10997;52.242;8.168;2024-01-30T19:35:40;8.40;99.90
21672;DHT22;10997;52.242;8.168;2024-01-30T19:40:41;8.30;99.90
21672;DHT22;10997;52.242;8.168;2024-01-30T19:45:42;8.30;99.90
21672;DHT22;10997;52.242;8.168;2024-01-30T19:50:43;8.30;99.90
21672;DHT22;10997;52.242;8.168;2024-01-30T19:55:43;8.20;99.90
21672;DHT22;10997;52.242;8.168;2024-01-30T20:00:45;8.20;99.90
21672;DHT22;10997;52.242;8.168;2024-01-30T20:05:46;8.00;99.90
21672;DHT22;10997;52.242;8.168;2024-01-30T20:10:47;8.00;99.90
21672;DHT22;10997;52.242;8.168;2024-01-30T20:15:48;7.90;99.90
21672;DHT22;10997;52.242;8.168;2024-01-30T20:20:50;7.90;99.90
21672;DHT22;10997;52.242;8.168;2024-01-30T20:25:51;7.90;99.90
21672;DHT22;10997;52.242;8.168;2024-01-30T20:30:51;7.80;99.90
21672;DHT22;10997;52.242;8.168;2024-01-30T20:35:52;7.70;99.90
21672;DHT22;10997;52.242;8.168;2024-01-30T20:40:52;7.70;99.90
21672;DHT22;10997;52.242;8.168;2024-01-30T20:45:53;7.70;99.90
21672;DHT22;10997;52.242;8.168;2024-01-30T20:50:54;7.60;99.90
21672;DHT22;10997;52.242;8.168;2024-01-30T20:55:55;7.60;99.90
21672;DHT22;10997;52.242;8.168;2024-01-30T21:00:56;7.60;99.90
21672;DHT22;10997;52.242;8.168;2024-01-30T21:05:57;7.50;99.90
21672;DHT22;10997;52.242;8.168;2024-01-30T21:10:58;7.50;99.90
21672;DHT22;10997;52.242;8.168;2024-01-30T21:16:00;7.40;99.90
21672;DHT22;10997;52.242;8.168;2024-01-30T21:21:00;7.30;99.90
21672;DHT22;10997;52.242;8.168;2024-01-30T21:26:01;7.20;99.90
21672;DHT22;10997;52.242;8.168;2024-01-30T21:31:04;7.10;99.90
21672;DHT22;10997;52.242;8.168;2024-01-30T21:36:08;7.00;99.90
21672;DHT22;10997;52.242;8.168;2024-01-30T21:41:08;7.00;99.90
21672;DHT22;10997;52.242;8.168;2024-01-30T21:46:09;6.90;99.90
21672;DHT22;10997;52.242;8.168;2024-01-30T21:51:10;6.90;99.90
21672;DHT22;10997;52.242;8.168;2024-01-30T21:56:11;6.90;99.90
21672;DHT22;10997;52.242;8.168;2024-01-30T22:01:11;6.90;99.90
21672;DHT22;10997;52.242;8.168;2024-01-30T22:06:12;6.80;99.90
21672;DHT22;10997;52.242;8.168;2024-01-30T22:11:14;6.80;99.90
21672;DHT22;10997;52.242;8.168;2024-01-30T22:16:14;6.80;99.90
21672;DHT22;10997;52.242;8.168;2024-01-30T22:21:15;6.80;99.90
21672;DHT22;10997;52.242;8.168;2024-01-30T22:26:16;6.80;99.90
21672;DHT22;10997;52.242;8.168;2024-01-30T22:31:16;6.80;99.90
21672;DHT22;10997;52.242;8.168;2024-01-30T22:36:17;6.70;99.90
21672;DHT22;10997;52.242;8.168;2024-01-30T22:41:24;6.70;99.90
21672;DHT22;10997;52.242;8.168;2024-01-30T22:46:25;6.70;99.90
21672;DHT22;10997;52.242;8.168;2024-01-30T22:51:25;6.60;99.90
21672;DHT22;10997;52.242;8.168;2024-01-30T22:56:26;6.50;99.90
21672;DHT22;10997;52.242;8.168;2024-01-30T23:01:27;6.50;99.90
21672;DHT22;10997;52.242;8.168;2024-01-30T23:06:28;6.50;99.90
21672;DHT22;10997;52.242;8.168;2024-01-30T23:11:28;6.40;99.90
21672;DHT22;10997;52.242;8.168;2024-01-30T23:16:29;6.40;99.90
21672;DHT22;10997;52.242;8.168;2024-01-30T23:21:29;6.40;99.90
21672;DHT22;10997;52.242;8.168;2024-01-30T23:26:30;6.30;99.90
21672;DHT22;10997;52.242;8.168;2024-01-30T23:31:31;6.30;99.90
21672;DHT22;10997;52.242;8.168;2024-01-30T23:36:32;6.30;99.90
21672;DHT22;10997;52.242;8.168;2024-01-30T23:41:33;6.20;99.90
21672;DHT22;10997;52.242;8.168;2024-01-30T23:46:34;6.20;99.90
21672;DHT22;10997;52.242;8.168;2024-01-30T23:51:35;6.10;99.90
21672;DHT22;10997;52.242;8.168;2024-01-30T23:56:39;6.10;99.90
